createdAt,value
2022-09-14T00:00:09.707Z,100906.59
2022-09-14T00:05:11.155Z,100907.22
2022-09-14T00:10:12.604Z,100909.59
2022-09-14T00:15:14.133Z,100906.19
2022-09-14T00:20:15.585Z,100902.00
2022-09-14T00:25:18.247Z,100892.53
2022-09-14T00:30:20.388Z,100879.38
2022-09-14T00:35:21.845Z,100887.63
2022-09-14T00:40:23.400Z,100873.78
2022-09-14T00:45:25.548Z,100875.69
2022-09-14T00:50:26.998Z,100867.13
2022-09-14T00:55:28.767Z,100866.28
2022-09-14T01:00:31.170Z,100873.84
2022-09-14T01:05:58.720Z,100864.75
2022-09-14T01:11:21.618Z,100850.19
2022-09-14T01:16:31.059Z,100852.94
2022-09-14T01:21:37.067Z,100838.94
2022-09-14T01:26:59.217Z,100849.25
2022-09-14T01:32:06.261Z,100842.25
2022-09-14T01:37:19.044Z,100843.94
2022-09-14T01:42:25.179Z,100837.03
2022-09-14T01:47:35.343Z,100834.38
2022-09-14T01:52:46.191Z,100825.09
2022-09-14T01:58:02.246Z,100825.56
2022-09-14T02:03:17.331Z,100817.75
2022-09-14T02:08:19.073Z,100822.84
2022-09-14T02:13:20.781Z,100812.50
2022-09-14T02:18:22.584Z,100813.19
2022-09-14T02:23:24.327Z,100805.78
2022-09-14T02:28:25.812Z,100796.50
2022-09-14T02:33:37.963Z,100790.78
2022-09-14T02:39:00.634Z,100782.38
2022-09-14T02:44:18.719Z,100771.78
2022-09-14T02:49:53.286Z,100770.09
2022-09-14T02:55:02.645Z,100766.03
2022-09-14T03:00:04.336Z,100769.63
2022-09-14T03:05:05.977Z,100765.19
2022-09-14T03:10:07.798Z,100748.03
2022-09-14T03:15:09.706Z,100756.09
2022-09-14T03:20:11.437Z,100760.91
2022-09-14T03:25:14.035Z,100758.38
2022-09-14T03:30:15.534Z,100732.81
2022-09-14T03:35:17.592Z,100727.78
2022-09-14T03:40:21.859Z,100721.44
2022-09-14T03:45:23.646Z,100729.69
2022-09-14T03:50:25.096Z,100721.44
2022-09-14T03:55:26.549Z,100730.31
2022-09-14T04:00:28.007Z,100715.59
2022-09-14T04:05:29.478Z,100720.28
2022-09-14T04:10:31.203Z,100719.69
2022-09-14T04:15:32.724Z,100720.16
2022-09-14T04:20:34.171Z,100713.59
2022-09-14T04:25:35.828Z,100725.06
2022-09-14T04:30:37.421Z,100718.13
2022-09-14T04:35:38.938Z,100698.28
2022-09-14T04:40:43.606Z,100705.28
2022-09-14T04:45:45.626Z,100694.75
2022-09-14T04:50:47.106Z,100709.75
2022-09-14T04:55:48.534Z,100696.69
2022-09-14T05:00:49.989Z,100681.41
2022-09-14T05:05:51.444Z,100698.16
2022-09-14T05:10:55.808Z,100686.38
2022-09-14T05:16:25.362Z,100685.31
2022-09-14T05:21:27.747Z,100693.13
2022-09-14T05:26:30.965Z,100694.00
2022-09-14T05:31:32.651Z,100690.00
2022-09-14T05:36:36.363Z,100684.28
2022-09-14T05:41:38.173Z,100682.41
2022-09-14T05:46:40.127Z,100677.34
2022-09-14T05:51:41.757Z,100683.72
2022-09-14T05:56:43.207Z,100681.22
2022-09-14T06:01:46.216Z,100682.28
2022-09-14T06:07:01.662Z,100690.78
2022-09-14T06:12:09.330Z,100692.69
2022-09-14T06:17:10.772Z,100696.75
2022-09-14T06:22:12.207Z,100684.28
2022-09-14T06:27:13.738Z,100693.38
2022-09-14T06:32:15.179Z,100689.59
2022-09-14T06:37:16.722Z,100686.25
2022-09-14T06:42:18.228Z,100680.56
2022-09-14T06:47:20.131Z,100675.97
2022-09-14T06:52:21.598Z,100670.44
2022-09-14T06:57:23.034Z,100670.69
2022-09-14T07:02:24.522Z,100679.16
2022-09-14T07:07:26.025Z,100677.66
2022-09-14T07:12:28.259Z,100685.94
2022-09-14T07:17:29.743Z,100677.03
2022-09-14T07:22:34.300Z,100682.97
2022-09-14T07:27:38.703Z,100682.53
2022-09-14T07:32:40.390Z,100702.88
2022-09-14T07:37:41.864Z,100709.69
2022-09-14T07:42:43.338Z,100698.19
2022-09-14T07:47:44.800Z,100695.44
2022-09-14T07:52:50.120Z,100690.31
2022-09-14T07:57:56.414Z,100685.91
2022-09-14T08:02:58.770Z,100696.69
2022-09-14T08:08:00.241Z,100694.97
2022-09-14T08:13:01.768Z,100687.59
2022-09-14T08:18:03.259Z,100684.81
2022-09-14T08:23:04.834Z,100687.59
2022-09-14T08:28:06.304Z,100683.94
2022-09-14T08:33:07.755Z,100680.31
2022-09-14T08:38:09.226Z,100678.59
2022-09-14T08:43:13.364Z,100688.78
2022-09-14T08:48:22.622Z,100680.50
2022-09-14T08:53:25.860Z,100667.13
2022-09-14T08:58:48.541Z,100662.22
2022-09-14T09:03:59.139Z,100660.31
2022-09-14T09:09:17.634Z,100650.31
2022-09-14T09:14:24.326Z,100649.22
2022-09-14T09:19:33.938Z,100653.41
2022-09-14T09:24:45.699Z,100652.31
2022-09-14T09:29:47.196Z,100653.75
2022-09-14T09:34:48.709Z,100661.38
2022-09-14T09:39:51.134Z,100666.19
2022-09-14T09:45:04.520Z,100655.47
2022-09-14T09:50:26.288Z,100650.81
2022-09-14T09:55:38.313Z,100662.47
2022-09-14T10:00:39.926Z,100656.91
2022-09-14T10:05:41.438Z,100646.38
2022-09-14T10:10:44.533Z,100648.19
2022-09-14T10:15:46.680Z,100647.66
2022-09-14T10:20:53.947Z,100654.19
2022-09-14T10:26:10.687Z,100640.44
2022-09-14T10:31:15.066Z,100644.75
2022-09-14T10:36:29.692Z,100654.28
2022-09-14T10:42:07.626Z,100638.28
2022-09-14T10:47:27.379Z,100633.00
2022-09-14T10:52:42.766Z,100620.78
2022-09-14T10:57:47.125Z,100614.03
2022-09-14T11:03:00.833Z,100619.56
2022-09-14T11:08:14.199Z,100620.81
2022-09-14T11:13:30.857Z,100629.97
2022-09-14T11:18:51.396Z,100623.34
2022-09-14T11:23:55.799Z,100630.38
2022-09-14T11:29:22.634Z,100635.31
2022-09-14T11:34:42.353Z,100626.75
2022-09-14T11:40:02.594Z,100624.38
2022-09-14T11:45:16.829Z,100616.84
2022-09-14T11:50:25.335Z,100624.03
2022-09-14T11:55:27.076Z,100622.56
2022-09-14T12:00:30.413Z,100622.72
2022-09-14T12:05:34.264Z,100626.78
2022-09-14T12:11:03.758Z,100622.09
2022-09-14T12:16:07.926Z,100606.44
2022-09-14T12:21:22.725Z,100613.06
2022-09-14T12:26:31.470Z,100615.28
2022-09-14T12:31:38.400Z,100609.88
2022-09-14T12:36:39.759Z,100619.47
2022-09-14T12:41:41.487Z,100613.75
2022-09-14T12:46:43.060Z,100611.31
2022-09-14T12:51:49.404Z,100603.75
2022-09-14T12:57:31.633Z,100595.63
2022-09-14T13:02:42.186Z,100607.47
2022-09-14T13:07:44.940Z,100598.41
2022-09-14T13:12:47.905Z,100591.16
2022-09-14T13:18:04.548Z,100587.84
2022-09-14T13:23:19.494Z,100587.75
2022-09-14T13:28:21.530Z,100584.94
2022-09-14T13:33:23.737Z,100580.16
2022-09-14T13:38:34.533Z,100585.97
2022-09-14T13:43:36.295Z,100575.13
2022-09-14T13:48:42.741Z,100577.28
2022-09-14T13:53:48.607Z,100565.31
2022-09-14T13:59:11.441Z,100561.19
2022-09-14T14:04:33.498Z,100553.63
2022-09-14T14:09:55.822Z,100545.19
2022-09-14T14:15:09.316Z,100545.19
2022-09-14T14:20:31.123Z,100551.88
2022-09-14T14:25:45.030Z,100553.44
2022-09-14T14:30:47.823Z,100537.38
2022-09-14T14:35:52.794Z,100536.66
2022-09-14T14:40:55.810Z,100531.59
2022-09-14T14:46:00.673Z,100531.47
2022-09-14T14:51:02.190Z,100527.28
2022-09-14T14:56:04.851Z,100524.97
2022-09-14T15:01:06.913Z,100516.53
2022-09-14T15:06:15.015Z,100522.13
2022-09-14T15:11:18.319Z,100517.03
2022-09-14T15:16:19.881Z,100510.28
2022-09-14T15:21:21.364Z,100516.75
2022-09-14T15:26:23.152Z,100516.16
2022-09-14T15:31:25.310Z,100518.28
2022-09-14T15:36:43.893Z,100514.09
2022-09-14T15:41:45.486Z,100514.53
2022-09-14T15:46:47.565Z,100513.94
2022-09-14T15:51:51.175Z,100514.97
2022-09-14T15:56:56.506Z,100503.56
2022-09-14T16:01:58.077Z,100515.63
2022-09-14T16:06:59.761Z,100507.91
2022-09-14T16:12:02.046Z,100504.31
2022-09-14T16:17:05.119Z,100514.53
2022-09-14T16:22:06.850Z,100519.91
2022-09-14T16:27:08.669Z,100520.38
2022-09-14T16:32:10.312Z,100519.31
2022-09-14T16:37:12.043Z,100522.91
2022-09-14T16:42:13.560Z,100535.06
2022-09-14T16:47:15.003Z,100533.19
2022-09-14T16:52:16.453Z,100535.19
2022-09-14T16:57:17.948Z,100531.66
2022-09-14T17:02:19.484Z,100536.63
2022-09-14T17:07:22.332Z,100536.53
2022-09-14T17:12:23.845Z,100538.97
2022-09-14T17:17:25.643Z,100537.56
2022-09-14T17:22:27.096Z,100543.81
2022-09-14T17:27:28.566Z,100547.69
2022-09-14T17:32:30.067Z,100547.53
2022-09-14T17:37:31.502Z,100552.44
2022-09-14T17:42:32.963Z,100555.63
2022-09-14T17:47:35.698Z,100554.19
2022-09-14T17:52:37.200Z,100554.84
2022-09-14T17:57:38.679Z,100551.28
2022-09-14T18:02:40.301Z,100559.59
2022-09-14T18:07:41.743Z,100559.63
2022-09-14T18:12:46.599Z,100563.22
2022-09-14T18:17:48.109Z,100575.41
2022-09-14T18:22:49.994Z,100577.34
2022-09-14T18:27:51.433Z,100583.31
2022-09-14T18:32:52.956Z,100577.16
2022-09-14T18:37:55.365Z,100587.81
2022-09-14T18:42:56.801Z,100595.03
2022-09-14T18:47:58.821Z,100595.06
2022-09-14T18:53:00.795Z,100599.97
2022-09-14T18:58:02.381Z,100598.06
2022-09-14T19:03:04.289Z,100605.09
2022-09-14T19:08:06.036Z,100603.88
2022-09-14T19:13:07.883Z,100609.84
2022-09-14T19:18:09.331Z,100613.41
2022-09-14T19:23:10.781Z,100622.97
2022-09-14T19:28:12.305Z,100608.97
2022-09-14T19:33:14.569Z,100610.28
2022-09-14T19:38:16.029Z,100612.19
2022-09-14T19:43:17.509Z,100607.09
2022-09-14T19:48:19.057Z,100606.25
2022-09-14T19:53:20.622Z,100613.88
2022-09-14T19:58:22.329Z,100611.34
2022-09-14T20:03:24.337Z,100601.19
2022-09-14T20:08:25.796Z,100602.88
2022-09-14T20:13:27.259Z,100600.75
2022-09-14T20:18:31.599Z,100610.72
2022-09-14T20:23:33.052Z,100597.38
2022-09-14T20:28:35.313Z,100591.66
2022-09-14T20:33:37.174Z,100581.06
2022-09-14T20:38:45.688Z,100584.66
2022-09-14T20:43:49.230Z,100583.16
2022-09-14T20:48:50.956Z,100583.38
2022-09-14T20:53:52.990Z,100590.59
2022-09-14T20:58:56.490Z,100593.97
2022-09-14T21:04:04.947Z,100592.91
2022-09-14T21:09:07.322Z,100596.94
2022-09-14T21:14:09.041Z,100607.94
2022-09-14T21:19:16.691Z,100604.13
2022-09-14T21:24:20.034Z,100604.97
2022-09-14T21:29:23.804Z,100611.09
2022-09-14T21:34:25.551Z,100613.88
2022-09-14T21:39:27.102Z,100617.28
2022-09-14T21:44:33.393Z,100615.13
2022-09-14T21:49:34.935Z,100618.53
2022-09-14T21:54:36.415Z,100617.25
2022-09-14T21:59:38.042Z,100612.38
2022-09-14T22:04:39.510Z,100615.59
2022-09-14T22:09:42.045Z,100611.56
2022-09-14T22:14:43.505Z,100609.88
2022-09-14T22:19:44.939Z,100620.25
2022-09-14T22:24:46.408Z,100625.75
2022-09-14T22:29:47.877Z,100629.16
2022-09-14T22:34:50.661Z,100627.22
2022-09-14T22:39:52.238Z,100620.69
2022-09-14T22:44:54.303Z,100629.38
2022-09-14T22:49:55.778Z,100631.69
2022-09-14T22:54:57.251Z,100629.56
2022-09-14T22:59:58.686Z,100643.09
2022-09-14T23:05:00.197Z,100638.81
2022-09-14T23:10:01.699Z,100638.81
2022-09-14T23:15:03.610Z,100636.03
2022-09-14T23:20:05.945Z,100643.00
2022-09-14T23:25:07.813Z,100646.53
2022-09-14T23:30:09.601Z,100650.97
2022-09-14T23:35:11.681Z,100651.53
2022-09-14T23:40:13.253Z,100651.94
2022-09-14T23:45:15.162Z,100649.59
2022-09-14T23:50:16.725Z,100656.16
2022-09-14T23:55:18.293Z,100657.66
